sensor_id;sensor_type;location;lat;lon;timestamp;pressure;altitude;pressure_sealevel;temperature;humidity
9261;BME280;4667;42.726;23.252;2024-02-26T17:31:07;94318.44;;;8.89;46.88
9261;BME280;4667;42.726;23.252;2024-02-26T17:33:37;94781.13;;;12.19;46.14
9261;BME280;4667;42.726;23.252;2024-02-26T17:36:07;94803.78;;;12.51;45.84
9261;BME280;4667;42.726;23.252;2024-02-26T17:38:39;94507.22;;;10.78;45.14
9261;BME280;4667;42.726;23.252;2024-02-26T17:41:08;94625.28;;;11.78;44.97
9261;BME280;4667;42.726;23.252;2024-02-26T17:43:38;94597.31;;;11.72;44.34
9261;BME280;4667;42.726;23.252;2024-02-26T17:46:08;94328.28;;;10.15;43.82
9261;BME280;4667;42.726;23.252;2024-02-26T17:48:36;94517.34;;;11.51;43.46
9261;BME280;4667;42.726;23.252;2024-02-26T17:51:08;94829.09;;;13.42;43.40
9261;BME280;4667;42.726;23.252;2024-02-26T17:53:48;94741.16;;;12.95;43.24
9261;BME280;4667;42.726;23.252;2024-02-26T17:56:17;94741.59;;;13.08;43.18
9261;BME280;4667;42.726;23.252;2024-02-26T17:58:45;94560.22;;;11.97;42.87
9261;BME280;4667;42.726;23.252;2024-02-26T18:01:13;94819.13;;;13.68;42.78
9261;BME280;4667;42.726;23.252;2024-02-26T18:03:41;94743.66;;;13.26;42.91
9261;BME280;4667;42.726;23.252;2024-02-26T18:06:08;94734.72;;;13.12;43.10
9261;BME280;4667;42.726;23.252;2024-02-26T18:08:35;94768.41;;;13.45;43.13
9261;BME280;4667;42.726;23.252;2024-02-26T18:11:02;94833.34;;;13.82;43.32
9261;BME280;4667;42.726;23.252;2024-02-26T18:13:29;94828.03;;;13.82;43.16
9261;BME280;4667;42.726;23.252;2024-02-26T18:15:57;94835.72;;;13.78;43.14
9261;BME280;4667;42.726;23.252;2024-02-26T18:18:26;94797.25;;;13.52;43.28
9261;BME280;4667;42.726;23.252;2024-02-26T18:20:58;94712.66;;;12.82;43.39
9261;BME280;4667;42.726;23.252;2024-02-26T18:23:26;94834.81;;;13.59;43.55
9261;BME280;4667;42.726;23.252;2024-02-26T18:25:55;94789.47;;;13.26;44.23
9261;BME280;4667;42.726;23.252;2024-02-26T18:28:22;94814.59;;;13.29;44.04
9261;BME280;4667;42.726;23.252;2024-02-26T18:30:50;94674.25;;;12.35;44.69
9261;BME280;4667;42.726;23.252;2024-02-26T18:33:21;94700.09;;;12.54;44.30
9261;BME280;4667;42.726;23.252;2024-02-26T18:35:59;94781.81;;;13.15;44.28
9261;BME280;4667;42.726;23.252;2024-02-26T18:38:29;94797.69;;;13.15;44.07
9261;BME280;4667;42.726;23.252;2024-02-26T18:40:57;94683.25;;;12.34;44.28
9261;BME280;4667;42.726;23.252;2024-02-26T18:43:24;94795.06;;;13.10;44.32
9261;BME280;4667;42.726;23.252;2024-02-26T18:45:55;94854.53;;;13.38;44.35
9261;BME280;4667;42.726;23.252;2024-02-26T18:48:24;94703.91;;;12.27;44.90
9261;BME280;4667;42.726;23.252;2024-02-26T18:50:54;94704.97;;;12.26;44.77
9261;BME280;4667;42.726;23.252;2024-02-26T18:53:21;94777.78;;;12.68;45.18
9261;BME280;4667;42.726;23.252;2024-02-26T18:55:49;94848.84;;;13.05;45.31
9261;BME280;4667;42.726;23.252;2024-02-26T18:58:18;94815.41;;;12.65;45.51
9261;BME280;4667;42.726;23.252;2024-02-26T19:00:55;94830.69;;;12.73;46.35
9261;BME280;4667;42.726;23.252;2024-02-26T19:03:28;94723.84;;;11.89;46.38
9261;BME280;4667;42.726;23.252;2024-02-26T19:05:59;94865.59;;;12.85;46.37
9261;BME280;4667;42.726;23.252;2024-02-26T19:39:38;94905.75;;;13.08;46.64
9261;BME280;4667;42.726;23.252;2024-02-26T19:42:19;94567.09;;;10.83;46.37
9261;BME280;4667;42.726;23.252;2024-02-26T19:45:02;94786.44;;;12.19;46.74
9261;BME280;4667;42.726;23.252;2024-02-26T19:47:44;94211.19;;;8.18;46.57
9261;BME280;4667;42.726;23.252;2024-02-26T19:50:25;94520.09;;;10.08;47.51
9261;BME280;4667;42.726;23.252;2024-02-26T19:53:11;94935.50;;;12.59;47.53
9261;BME280;4667;42.726;23.252;2024-02-26T20:07:31;94333.03;;;8.59;48.19
9261;BME280;4667;42.726;23.252;2024-02-26T20:59:09;94974.94;;;11.31;51.84
9261;BME280;4667;42.726;23.252;2024-02-26T21:01:55;94673.66;;;9.56;52.30
9261;BME280;4667;42.726;23.252;2024-02-26T21:04:38;94569.38;;;8.61;52.24
9261;BME280;4667;42.726;23.252;2024-02-26T21:07:07;94788.34;;;9.74;52.41
9261;BME280;4667;42.726;23.252;2024-02-26T21:09:49;94344.56;;;6.87;52.30
9261;BME280;4667;42.726;23.252;2024-02-26T21:12:32;94666.59;;;8.88;53.21
9261;BME280;4667;42.726;23.252;2024-02-26T21:29:52;94299.53;;;6.24;54.73
9261;BME280;4667;42.726;23.252;2024-02-26T21:35:01;94948.28;;;10.43;54.48
9261;BME280;4667;42.726;23.252;2024-02-26T21:37:42;94635.13;;;7.95;54.61
9261;BME280;4667;42.726;23.252;2024-02-26T21:40:15;94618.56;;;8.16;54.92
9261;BME280;4667;42.726;23.252;2024-02-26T21:42:56;94391.16;;;6.63;55.61
9261;BME280;4667;42.726;23.252;2024-02-26T21:51:17;94965.06;;;10.32;55.31
9261;BME280;4667;42.726;23.252;2024-02-26T21:53:59;94790.28;;;8.98;55.25
9261;BME280;4667;42.726;23.252;2024-02-26T21:56:41;94775.50;;;8.92;54.95
9261;BME280;4667;42.726;23.252;2024-02-26T22:01:58;94953.94;;;9.98;55.28
9261;BME280;4667;42.726;23.252;2024-02-26T22:04:26;95019.19;;;10.39;55.70
9261;BME280;4667;42.726;23.252;2024-02-26T22:06:57;94977.94;;;10.01;55.91
9261;BME280;4667;42.726;23.252;2024-02-26T22:09:24;95026.53;;;10.37;55.50
9261;BME280;4667;42.726;23.252;2024-02-26T22:11:53;94750.09;;;8.31;56.12
9261;BME280;4667;42.726;23.252;2024-02-26T22:14:34;94638.00;;;7.71;56.10
9261;BME280;4667;42.726;23.252;2024-02-26T22:17:15;94761.13;;;8.50;56.11
9261;BME280;4667;42.726;23.252;2024-02-26T22:19:56;94947.41;;;9.51;56.58
9261;BME280;4667;42.726;23.252;2024-02-26T22:28:52;95010.34;;;10.24;56.23
9261;BME280;4667;42.726;23.252;2024-02-26T22:31:19;94919.59;;;9.60;56.44
9261;BME280;4667;42.726;23.252;2024-02-26T22:33:47;94404.34;;;6.13;56.36
9261;BME280;4667;42.726;23.252;2024-02-26T22:36:29;94793.13;;;8.69;56.53
9261;BME280;4667;42.726;23.252;2024-02-26T22:39:11;94740.50;;;8.20;56.90
9261;BME280;4667;42.726;23.252;2024-02-26T22:41:51;94340.00;;;5.83;56.49
9261;BME280;4667;42.726;23.252;2024-02-26T22:44:50;95009.06;;;10.04;56.87
9261;BME280;4667;42.726;23.252;2024-02-26T22:47:32;94375.84;;;5.83;56.84
9261;BME280;4667;42.726;23.252;2024-02-26T22:50:15;94717.31;;;8.17;56.82
9261;BME280;4667;42.726;23.252;2024-02-26T22:52:56;94876.47;;;9.13;56.71
9261;BME280;4667;42.726;23.252;2024-02-26T22:55:41;94655.94;;;7.79;56.73
9261;BME280;4667;42.726;23.252;2024-02-26T22:58:23;94590.22;;;7.30;56.79
9261;BME280;4667;42.726;23.252;2024-02-26T23:04:31;95042.91;;;10.18;56.72
9261;BME280;4667;42.726;23.252;2024-02-26T23:07:11;94665.34;;;7.75;57.09
9261;BME280;4667;42.726;23.252;2024-02-26T23:14:49;95026.09;;;9.97;56.99
9261;BME280;4667;42.726;23.252;2024-02-26T23:17:39;95069.78;;;10.14;56.84
9261;BME280;4667;42.726;23.252;2024-02-26T23:23:20;94958.06;;;9.40;56.30
9261;BME280;4667;42.726;23.252;2024-02-26T23:25:47;94891.50;;;8.95;56.10
9261;BME280;4667;42.726;23.252;2024-02-26T23:28:15;94935.13;;;9.35;56.39
9261;BME280;4667;42.726;23.252;2024-02-26T23:30:50;95084.69;;;10.04;56.61
9261;BME280;4667;42.726;23.252;2024-02-26T23:33:17;95086.63;;;10.13;56.54
9261;BME280;4667;42.726;23.252;2024-02-26T23:35:45;95072.72;;;9.96;57.19
9261;BME280;4667;42.726;23.252;2024-02-26T23:38:13;95058.47;;;9.70;57.67
9261;BME280;4667;42.726;23.252;2024-02-26T23:40:45;94957.25;;;8.95;57.63
9261;BME280;4667;42.726;23.252;2024-02-26T23:43:13;94997.06;;;9.21;58.09
9261;BME280;4667;42.726;23.252;2024-02-26T23:45:40;94944.22;;;8.83;58.57
9261;BME280;4667;42.726;23.252;2024-02-26T23:48:07;94892.34;;;8.57;58.27
9261;BME280;4667;42.726;23.252;2024-02-26T23:50:36;94948.81;;;8.93;58.63
9261;BME280;4667;42.726;23.252;2024-02-26T23:53:04;95104.84;;;9.93;58.83
9261;BME280;4667;42.726;23.252;2024-02-26T23:55:31;95096.69;;;9.95;58.71
9261;BME280;4667;42.726;23.252;2024-02-26T23:58:00;95097.44;;;9.90;59.18
